Elbella — 9HA2358 — position and weather

sailwx.info

Track history (hours):
 
Tides and Currents Weather Stations Pressure Air Temp Water Temp Dewpoint Dewpoint Depression Visibility Wind Speed Wind Dir Waves Ship Positions

Elbella

Last reported at 2015-Jan-25 11:33 UTC. Time now 2015-Jan-26 00:27 UTC.
Position N 31°44' E 030°51'.

Length 176 m; draft 10.1 m.

Type: Ship (hazmat cat A). MMSI: 248422000.

Date/timePositionNaut miles runAvg speedWind from/ knotsBaromVisibWave heightAir tempDewpointWater temp
2015-Jan-25 11:33N 31°44' E 030°51'1817.4
2015-Jan-25 10:32N 31°46' E 031°12'1917.6
2015-Jan-25 09:26N 31°46' E 031°34'3116.0
2015-Jan-25 07:31N 31°37' E 032°09'26 1.9
2015-Jan-24 17:34N 31°13' E 032°21'117 8.1
2015-Jan-24 03:13N 32°54' E 033°31'1317.2
2015-Jan-24 02:29N 33°03' E 033°42'4219.2
2015-Jan-24 00:16N 33°27' E 034°23'3015.6
2015-Jan-23 22:19N 33°44' E 034°53'34 4.7
2015-Jan-23 15:11N 33°55' E 035°32'110 2.4
2015-Jan-21 16:34N 34°32' E 033°27'1212.3
2015-Jan-21 15:33N 34°36' E 033°13'1010.4
2015-Jan-21 14:34N 34°39' E 033°01'0 0.0
2015-Jan-21 13:32N 34°39' E 033°01'0 0.0
2015-Jan-21 12:32N 34°39' E 033°01'0 0.0
2015-Jan-21 11:32N 34°39' E 033°01'0 0.0
2015-Jan-21 10:32N 34°39' E 033°01'0 0.0
2015-Jan-21 09:32N 34°39' E 033°01'0 0.0
2015-Jan-21 08:33N 34°39' E 033°01'0 0.0
2015-Jan-21 07:33N 34°39' E 033°01'0 0.0
2015-Jan-21 06:33N 34°39' E 033°01'0 0.0
2015-Jan-21 05:33N 34°39' E 033°01'1 1.2
2015-Jan-21 04:33N 34°39' E 033°02'2 1.7
2015-Jan-21 03:33N 34°39' E 033°04'5 4.7
2015-Jan-21 02:33N 34°39' E 033°10'1211.8
2015-Jan-21 01:33N 34°38' E 033°24'  
Track history (hours):
 
Tides and Currents Weather Stations Pressure Air Temp Water Temp Dewpoint Dewpoint Depression Visibility Wind Speed Wind Dir Waves Ship Positions

Elbella

Last reported at 2015-Jan-25 11:33 UTC. Time now 2015-Jan-26 00:27 UTC.
Position N 31°44' E 030°51'.

Length 176 m; draft 10.1 m.

Type: Ship (hazmat cat A). MMSI: 248422000.

Date/timePositionNaut miles runAvg speedWind from/ knotsBaromVisibWave heightAir tempDewpointWater temp
2015-Jan-25 11:33N 31°44' E 030°51'1817.4
2015-Jan-25 10:32N 31°46' E 031°12'1917.6
2015-Jan-25 09:26N 31°46' E 031°34'3116.0
2015-Jan-25 07:31N 31°37' E 032°09'26 1.9
2015-Jan-24 17:34N 31°13' E 032°21'117 8.1
2015-Jan-24 03:13N 32°54' E 033°31'1317.2
2015-Jan-24 02:29N 33°03' E 033°42'4219.2
2015-Jan-24 00:16N 33°27' E 034°23'3015.6
2015-Jan-23 22:19N 33°44' E 034°53'34 4.7
2015-Jan-23 15:11N 33°55' E 035°32'110 2.4
2015-Jan-21 16:34N 34°32' E 033°27'1212.3
2015-Jan-21 15:33N 34°36' E 033°13'1010.4
2015-Jan-21 14:34N 34°39' E 033°01'0 0.0
2015-Jan-21 13:32N 34°39' E 033°01'0 0.0
2015-Jan-21 12:32N 34°39' E 033°01'0 0.0
2015-Jan-21 11:32N 34°39' E 033°01'0 0.0
2015-Jan-21 10:32N 34°39' E 033°01'0 0.0
2015-Jan-21 09:32N 34°39' E 033°01'0 0.0
2015-Jan-21 08:33N 34°39' E 033°01'0 0.0
2015-Jan-21 07:33N 34°39' E 033°01'0 0.0
2015-Jan-21 06:33N 34°39' E 033°01'0 0.0
2015-Jan-21 05:33N 34°39' E 033°01'1 1.2
2015-Jan-21 04:33N 34°39' E 033°02'2 1.7
2015-Jan-21 03:33N 34°39' E 033°04'5 4.7
2015-Jan-21 02:33N 34°39' E 033°10'1211.8
2015-Jan-21 01:33N 34°38' E 033°24'  

Dump ship's entire track history